createdAt,value
2023-09-19T00:00:40.766Z,8.25
2023-09-19T00:03:08.056Z,5.47
2023-09-19T00:05:38.430Z,5.00
2023-09-19T00:08:06.385Z,7.45
2023-09-19T00:10:36.350Z,4.75
2023-09-19T00:13:04.605Z,7.63
2023-09-19T00:15:32.292Z,11.82
2023-09-19T00:17:59.529Z,7.45
2023-09-19T00:20:26.992Z,9.23
2023-09-19T00:22:55.691Z,6.28
2023-09-19T00:25:22.971Z,13.32
2023-09-19T00:27:50.589Z,4.70
2023-09-19T00:30:18.320Z,8.75
2023-09-19T00:32:45.494Z,9.25
2023-09-19T00:35:12.962Z,9.00
2023-09-19T00:37:40.302Z,9.00
2023-09-19T00:40:10.923Z,10.00
2023-09-19T00:42:38.279Z,7.88
2023-09-19T00:45:07.060Z,9.57
2023-09-19T00:47:34.480Z,9.07
2023-09-19T00:50:01.823Z,9.98
2023-09-19T00:52:29.091Z,13.52
2023-09-19T00:54:56.281Z,12.82
2023-09-19T00:57:25.230Z,16.85
2023-09-19T00:59:55.556Z,11.45
2023-09-19T01:02:22.913Z,13.55
2023-09-19T01:04:50.343Z,10.65
2023-09-19T01:07:17.682Z,11.07
2023-09-19T01:09:44.818Z,12.15
2023-09-19T01:12:14.430Z,13.13
2023-09-19T01:15:00.980Z,11.98
2023-09-19T01:17:32.706Z,9.15
2023-09-19T01:20:18.283Z,23.40
2023-09-19T01:22:57.979Z,11.13
2023-09-19T01:26:12.332Z,10.43
2023-09-19T01:28:54.364Z,8.55
2023-09-19T01:31:23.378Z,8.02
2023-09-19T01:33:59.508Z,10.60
2023-09-19T01:36:28.913Z,12.45
2023-09-19T01:38:57.624Z,12.55
2023-09-19T01:41:34.403Z,12.25
2023-09-19T01:44:03.032Z,14.05
2023-09-19T01:46:37.092Z,12.15
2023-09-19T01:49:17.175Z,15.90
2023-09-19T01:51:52.461Z,12.20
2023-09-19T01:54:28.439Z,9.32
2023-09-19T01:57:04.433Z,12.32
2023-09-19T01:59:37.920Z,11.57
2023-09-19T02:02:08.212Z,14.80
2023-09-19T02:04:35.587Z,12.65
2023-09-19T02:07:03.675Z,11.27
2023-09-19T02:09:30.797Z,8.45
2023-09-19T02:11:57.951Z,15.30
2023-09-19T02:14:25.075Z,7.65
2023-09-19T02:16:52.318Z,16.23
2023-09-19T02:19:21.080Z,12.20
2023-09-19T02:21:48.586Z,13.05
2023-09-19T02:24:15.876Z,15.52
2023-09-19T02:26:43.053Z,12.35
2023-09-19T02:29:10.387Z,13.52
2023-09-19T02:31:37.592Z,19.67
2023-09-19T02:34:04.889Z,14.25
2023-09-19T02:36:33.474Z,12.38
2023-09-19T02:39:00.631Z,8.43
2023-09-19T02:41:27.804Z,10.57
2023-09-19T02:43:54.981Z,14.45
2023-09-19T02:46:22.460Z,11.93
2023-09-19T02:48:49.687Z,10.13
2023-09-19T02:51:16.829Z,13.73
2023-09-19T02:53:45.667Z,15.52
2023-09-19T02:56:12.823Z,15.00
2023-09-19T02:58:40.038Z,11.82
2023-09-19T03:01:10.782Z,17.88
2023-09-19T03:03:38.129Z,13.40
2023-09-19T03:06:05.912Z,17.52
2023-09-19T03:08:33.193Z,13.35
2023-09-19T03:11:01.655Z,12.32
2023-09-19T03:13:28.862Z,8.07
2023-09-19T03:15:56.213Z,12.88
2023-09-19T03:18:23.469Z,16.52
2023-09-19T03:20:54.566Z,16.58
2023-09-19T03:23:21.860Z,13.10
2023-09-19T03:25:49.080Z,13.60
2023-09-19T03:28:17.698Z,11.02
2023-09-19T03:30:44.920Z,12.85
2023-09-19T03:33:13.523Z,14.23
2023-09-19T03:35:41.236Z,9.70
2023-09-19T03:38:08.413Z,17.13
2023-09-19T03:40:35.595Z,18.48
2023-09-19T03:43:02.731Z,13.43
2023-09-19T03:45:31.262Z,14.05
2023-09-19T03:47:58.394Z,16.02
2023-09-19T03:50:25.568Z,10.05
2023-09-19T03:52:57.708Z,11.43
2023-09-19T03:55:24.896Z,17.33
2023-09-19T03:57:52.011Z,12.38
2023-09-19T04:00:19.199Z,13.25
2023-09-19T04:02:47.710Z,17.27
2023-09-19T04:05:15.179Z,12.70
2023-09-19T04:07:42.411Z,17.00
2023-09-19T04:10:10.619Z,17.13
2023-09-19T04:12:37.767Z,12.45
2023-09-19T04:15:06.145Z,11.90
2023-09-19T04:17:33.534Z,17.10
2023-09-19T04:20:02.216Z,19.67
2023-09-19T04:22:29.401Z,11.30
2023-09-19T04:24:56.536Z,21.25
2023-09-19T04:27:23.720Z,14.38
2023-09-19T04:29:50.859Z,13.27
2023-09-19T04:32:18.005Z,16.63
2023-09-19T04:34:45.123Z,18.77
2023-09-19T04:37:13.648Z,19.65
2023-09-19T04:39:40.767Z,13.13
2023-09-19T04:42:08.009Z,11.32
2023-09-19T04:44:35.109Z,12.43
2023-09-19T04:47:02.377Z,19.42
2023-09-19T04:49:29.615Z,16.52
2023-09-19T04:51:56.830Z,25.85
2023-09-19T04:54:25.356Z,12.23
2023-09-19T04:56:52.498Z,17.30
2023-09-19T04:59:19.663Z,10.05
2023-09-19T05:01:46.839Z,12.80
2023-09-19T05:04:13.986Z,9.18
2023-09-19T05:06:41.667Z,18.30
2023-09-19T05:09:09.845Z,9.20
2023-09-19T05:11:38.387Z,16.65
2023-09-19T05:14:05.608Z,17.30
2023-09-19T05:16:32.910Z,16.65
2023-09-19T05:19:00.115Z,15.48
2023-09-19T05:21:27.379Z,10.55
2023-09-19T05:23:54.549Z,14.48
2023-09-19T05:26:21.658Z,15.52
2023-09-19T05:28:50.177Z,16.33
2023-09-19T05:31:17.472Z,26.38
2023-09-19T05:33:44.673Z,14.27
2023-09-19T05:36:11.835Z,16.30
2023-09-19T05:38:39.016Z,14.98
2023-09-19T05:41:06.137Z,13.07
2023-09-19T05:43:33.350Z,14.70
2023-09-19T05:46:02.818Z,19.83
2023-09-19T05:48:30.182Z,18.63
2023-09-19T05:50:57.599Z,12.40
2023-09-19T05:53:24.817Z,14.23
2023-09-19T05:55:51.969Z,13.57
2023-09-19T05:58:19.299Z,18.98
2023-09-19T06:00:46.637Z,13.63
2023-09-19T06:03:15.284Z,14.15
2023-09-19T06:05:42.723Z,18.35
2023-09-19T06:08:09.876Z,14.75
2023-09-19T06:10:37.170Z,13.95
2023-09-19T06:13:04.832Z,12.88
2023-09-19T06:15:32.008Z,16.25
2023-09-19T06:17:59.273Z,16.02
2023-09-19T06:20:27.982Z,18.67
2023-09-19T06:22:55.470Z,12.57
2023-09-19T06:25:23.879Z,13.73
2023-09-19T06:27:52.712Z,12.18
2023-09-19T06:30:20.153Z,12.70
2023-09-19T06:32:47.384Z,16.85
2023-09-19T06:35:16.659Z,17.65
2023-09-19T06:37:45.313Z,10.48
2023-09-19T06:40:14.456Z,17.55
2023-09-19T06:42:42.510Z,20.65
2023-09-19T06:45:10.399Z,18.08
2023-09-19T06:47:37.554Z,18.85
2023-09-19T06:50:05.731Z,15.75
2023-09-19T06:52:33.445Z,16.70
2023-09-19T06:55:02.071Z,18.45
2023-09-19T06:57:29.219Z,18.75
2023-09-19T06:59:56.419Z,16.27
2023-09-19T07:02:23.809Z,16.05
2023-09-19T07:04:51.122Z,22.40
2023-09-19T07:07:18.260Z,18.92
2023-09-19T07:09:45.386Z,15.48
2023-09-19T07:12:13.932Z,11.80
2023-09-19T07:14:41.074Z,16.52
2023-09-19T07:17:08.224Z,11.30
2023-09-19T07:19:35.427Z,18.63
2023-09-19T07:22:02.588Z,16.77
2023-09-19T07:24:30.180Z,18.13
2023-09-19T07:26:57.292Z,21.48
2023-09-19T07:29:25.905Z,14.32
2023-09-19T07:31:53.201Z,15.00
2023-09-19T07:34:20.730Z,21.13
2023-09-19T07:36:47.899Z,15.60
2023-09-19T07:39:23.063Z,19.42
2023-09-19T07:41:50.966Z,18.02
2023-09-19T07:44:18.550Z,20.05
2023-09-19T07:46:47.156Z,13.30
2023-09-19T07:49:14.539Z,13.40
2023-09-19T07:51:41.880Z,16.70
2023-09-19T07:54:08.992Z,16.55
2023-09-19T07:56:36.148Z,14.38
2023-09-19T07:59:04.272Z,17.48
2023-09-19T08:01:31.981Z,12.65
2023-09-19T08:04:00.629Z,13.73
2023-09-19T08:06:27.863Z,19.15
2023-09-19T08:08:55.157Z,15.95
2023-09-19T08:11:22.336Z,14.63
2023-09-19T08:13:49.758Z,24.15
2023-09-19T08:16:17.269Z,19.67
2023-09-19T08:18:47.785Z,22.52
2023-09-19T08:21:17.867Z,19.65
2023-09-19T08:23:45.257Z,15.35
2023-09-19T08:26:12.605Z,11.82
2023-09-19T08:28:39.852Z,16.70
2023-09-19T08:31:08.589Z,13.50
2023-09-19T08:33:36.920Z,14.23
2023-09-19T08:36:04.900Z,22.05
2023-09-19T08:38:36.061Z,11.13
2023-09-19T08:41:07.994Z,20.65
2023-09-19T08:43:35.576Z,23.05
2023-09-19T08:46:11.686Z,14.75
2023-09-19T08:48:46.953Z,15.65
2023-09-19T08:51:20.031Z,19.13
2023-09-19T08:53:55.551Z,14.82
2023-09-19T08:56:23.929Z,15.60
2023-09-19T08:58:54.132Z,15.63
2023-09-19T09:01:22.222Z,15.48
2023-09-19T09:03:50.014Z,17.00
2023-09-19T09:06:18.316Z,12.55
2023-09-19T09:08:46.097Z,19.27
2023-09-19T09:11:16.366Z,16.88
2023-09-19T09:13:43.656Z,17.45
2023-09-19T09:16:11.092Z,13.88
2023-09-19T09:18:38.524Z,15.80
2023-09-19T09:21:05.757Z,14.65
2023-09-19T09:23:33.291Z,14.18
2023-09-19T09:26:01.367Z,15.45
2023-09-19T09:28:31.209Z,13.60
2023-09-19T09:30:59.216Z,16.45
2023-09-19T09:33:27.198Z,18.13
2023-09-19T09:35:57.342Z,14.18
2023-09-19T09:38:26.197Z,11.73
2023-09-19T09:40:55.601Z,12.82
2023-09-19T09:43:36.294Z,15.00
2023-09-19T09:46:12.835Z,17.27
2023-09-19T09:48:40.025Z,6.90
2023-09-19T09:51:07.242Z,12.27
2023-09-19T09:53:34.418Z,13.30
2023-09-19T09:56:03.932Z,15.18
2023-09-19T09:58:31.160Z,12.02
2023-09-19T10:01:00.925Z,11.80
2023-09-19T10:03:35.751Z,11.05
2023-09-19T10:06:03.007Z,12.52
2023-09-19T10:08:30.179Z,24.73
2023-09-19T10:10:57.390Z,19.00
2023-09-19T10:13:27.736Z,10.88
2023-09-19T10:15:55.613Z,9.57
2023-09-19T10:18:26.701Z,13.25
2023-09-19T10:20:54.024Z,9.77
2023-09-19T10:23:23.627Z,12.10
2023-09-19T10:25:52.005Z,10.65
2023-09-19T10:28:20.539Z,16.67
2023-09-19T10:30:49.156Z,12.90
2023-09-19T10:33:17.870Z,13.75
2023-09-19T10:35:48.367Z,10.65
2023-09-19T10:38:19.744Z,10.77
2023-09-19T10:40:51.540Z,14.93
2023-09-19T10:43:21.700Z,13.60
2023-09-19T10:45:51.048Z,13.23
2023-09-19T10:48:18.530Z,13.00
2023-09-19T10:50:50.800Z,14.30
2023-09-19T10:53:18.790Z,11.70
2023-09-19T10:55:52.918Z,12.27
2023-09-19T10:58:28.255Z,10.70
2023-09-19T11:00:56.684Z,10.75
2023-09-19T11:03:25.075Z,12.40
2023-09-19T11:06:10.718Z,13.13
2023-09-19T11:09:07.962Z,10.18
2023-09-19T11:11:49.367Z,12.68
2023-09-19T11:14:42.291Z,10.77
2023-09-19T11:17:43.234Z,10.90
2023-09-19T11:20:24.600Z,13.48
2023-09-19T11:23:20.922Z,8.88
2023-09-19T11:25:48.313Z,11.60
2023-09-19T11:28:33.960Z,9.32
2023-09-19T11:31:43.499Z,12.00
2023-09-19T11:34:48.379Z,11.82
2023-09-19T11:38:00.764Z,10.70
2023-09-19T11:40:29.713Z,8.40
2023-09-19T11:42:56.912Z,9.20
2023-09-19T11:46:03.992Z,13.75
2023-09-19T11:48:31.288Z,7.43
2023-09-19T11:50:58.759Z,9.38
2023-09-19T11:53:32.804Z,12.45
2023-09-19T11:56:01.687Z,10.68
2023-09-19T11:58:29.230Z,10.27
2023-09-19T12:00:56.521Z,14.00
2023-09-19T12:03:24.400Z,8.95
2023-09-19T12:05:51.571Z,19.23
2023-09-19T12:08:19.620Z,10.38
2023-09-19T12:10:47.602Z,6.30
2023-09-19T12:13:18.965Z,10.75
2023-09-19T12:15:46.164Z,8.85
2023-09-19T12:18:27.841Z,9.13
2023-09-19T12:20:55.041Z,12.10
2023-09-19T12:23:22.187Z,7.80
2023-09-19T12:25:49.502Z,9.13
2023-09-19T12:28:18.247Z,10.02
2023-09-19T12:30:45.474Z,11.77
2023-09-19T12:33:17.678Z,7.13
2023-09-19T12:35:44.907Z,8.80
2023-09-19T12:38:12.153Z,8.98
2023-09-19T12:40:39.615Z,8.63
2023-09-19T12:43:07.417Z,13.98
2023-09-19T12:45:36.965Z,9.73
2023-09-19T12:48:21.241Z,8.88
2023-09-19T12:51:05.369Z,11.13
2023-09-19T12:53:33.727Z,9.80
2023-09-19T12:56:01.619Z,8.13
2023-09-19T12:58:28.840Z,8.23
2023-09-19T13:00:57.344Z,12.57
2023-09-19T13:03:28.522Z,5.28
2023-09-19T13:05:57.408Z,10.75
2023-09-19T13:08:31.350Z,10.80
2023-09-19T13:11:11.755Z,7.32
2023-09-19T13:13:41.524Z,12.02
2023-09-19T13:16:10.585Z,6.80
2023-09-19T13:18:49.083Z,10.02
2023-09-19T13:21:16.644Z,7.60
2023-09-19T13:23:44.220Z,8.07
2023-09-19T13:26:11.652Z,7.50
2023-09-19T13:28:39.538Z,7.50
2023-09-19T13:31:06.795Z,8.82
2023-09-19T13:33:35.881Z,6.63
2023-09-19T13:36:03.512Z,12.77
2023-09-19T13:38:30.952Z,10.00
2023-09-19T13:40:58.177Z,17.42
2023-09-19T13:43:25.397Z,8.77
2023-09-19T13:45:52.527Z,6.57
2023-09-19T13:48:19.697Z,9.52
2023-09-19T13:50:48.212Z,8.23
2023-09-19T13:53:15.429Z,8.68
2023-09-19T13:55:42.619Z,7.97
2023-09-19T13:58:09.985Z,11.27
2023-09-19T14:00:37.223Z,6.30
2023-09-19T14:03:05.557Z,7.40
2023-09-19T14:05:32.910Z,10.43
2023-09-19T14:08:01.856Z,7.38
2023-09-19T14:10:29.177Z,11.93
2023-09-19T14:12:56.343Z,8.77
2023-09-19T14:15:23.525Z,7.60
2023-09-19T14:17:50.792Z,10.32
2023-09-19T14:20:18.285Z,11.57
2023-09-19T14:22:45.631Z,9.50
2023-09-19T14:25:14.405Z,8.30
2023-09-19T14:27:41.539Z,7.93
2023-09-19T14:30:09.805Z,6.10
2023-09-19T14:32:37.052Z,9.85
2023-09-19T14:35:04.788Z,9.43
2023-09-19T14:37:31.950Z,7.88
2023-09-19T14:39:59.229Z,8.85
2023-09-19T14:42:27.776Z,9.13
2023-09-19T14:44:54.948Z,7.18
2023-09-19T14:47:23.147Z,5.85
2023-09-19T14:49:50.400Z,7.75
2023-09-19T14:52:17.541Z,8.65
2023-09-19T14:54:44.748Z,8.02
2023-09-19T14:57:12.001Z,7.13
2023-09-19T14:59:40.617Z,10.85
2023-09-19T15:02:08.575Z,9.20
2023-09-19T15:04:36.349Z,8.15
2023-09-19T15:07:04.354Z,9.13
2023-09-19T15:09:31.592Z,5.88
2023-09-19T15:11:58.736Z,8.60
2023-09-19T15:14:26.179Z,5.60
2023-09-19T15:16:54.806Z,7.32
2023-09-19T15:19:22.072Z,7.18
2023-09-19T15:21:50.879Z,5.05
2023-09-19T15:24:18.071Z,10.10
2023-09-19T15:26:45.211Z,6.82
2023-09-19T15:29:12.405Z,8.38
2023-09-19T15:31:39.618Z,6.32
2023-09-19T15:34:08.146Z,5.55
2023-09-19T15:36:35.334Z,3.90
2023-09-19T15:39:04.567Z,7.32
2023-09-19T15:41:33.456Z,4.72
2023-09-19T15:44:02.913Z,3.67
2023-09-19T15:46:31.222Z,5.20
2023-09-19T15:48:58.925Z,9.98
2023-09-19T15:51:27.981Z,3.33
2023-09-19T15:53:56.487Z,4.28
2023-09-19T15:56:25.154Z,4.88
2023-09-19T15:58:55.083Z,5.63
2023-09-19T16:01:23.404Z,6.75
2023-09-19T16:03:52.194Z,4.93
2023-09-19T16:06:21.454Z,6.57
2023-09-19T16:08:51.222Z,6.93
2023-09-19T16:11:19.265Z,10.82
2023-09-19T16:13:46.720Z,12.00
2023-09-19T16:16:14.633Z,6.18
2023-09-19T16:18:45.762Z,4.75
2023-09-19T16:21:12.936Z,6.38
2023-09-19T16:23:40.308Z,4.40
2023-09-19T16:26:09.824Z,5.32
2023-09-19T16:28:37.989Z,8.35
2023-09-19T16:31:08.184Z,3.50
2023-09-19T16:33:36.500Z,7.03
2023-09-19T16:36:07.945Z,5.55
2023-09-19T16:38:35.132Z,5.55
2023-09-19T16:41:02.330Z,6.00
2023-09-19T16:43:31.121Z,4.90
2023-09-19T16:45:59.183Z,4.93
2023-09-19T16:48:27.585Z,4.68
2023-09-19T16:50:55.374Z,4.50
2023-09-19T16:53:22.665Z,7.90
2023-09-19T16:55:50.192Z,4.85
2023-09-19T16:58:18.037Z,6.38
2023-09-19T17:00:46.617Z,4.50
2023-09-19T17:03:13.864Z,4.05
2023-09-19T17:05:41.503Z,3.70
2023-09-19T17:08:08.760Z,6.32
2023-09-19T17:10:36.800Z,4.93
2023-09-19T17:13:04.692Z,6.72
2023-09-19T17:15:31.933Z,5.30
2023-09-19T17:18:01.336Z,2.25
2023-09-19T17:20:28.590Z,5.80
2023-09-19T17:22:55.957Z,5.78
2023-09-19T17:25:23.215Z,5.65
2023-09-19T17:27:50.412Z,9.80
2023-09-19T17:30:17.773Z,3.97
2023-09-19T17:32:45.349Z,7.55
2023-09-19T17:35:14.976Z,3.95
2023-09-19T17:37:42.180Z,4.57
2023-09-19T17:40:10.944Z,4.78
2023-09-19T17:42:38.327Z,6.28
2023-09-19T17:45:06.797Z,8.13
2023-09-19T17:47:33.987Z,7.38
2023-09-19T17:50:01.112Z,5.80
2023-09-19T17:52:29.755Z,12.15
2023-09-19T17:54:57.078Z,4.03
2023-09-19T17:57:26.791Z,4.70
2023-09-19T17:59:53.941Z,8.38
2023-09-19T18:02:21.107Z,5.10
2023-09-19T18:04:48.529Z,8.93
2023-09-19T18:07:15.682Z,5.95
2023-09-19T18:09:44.184Z,4.47
2023-09-19T18:12:11.294Z,6.40
2023-09-19T18:14:38.575Z,5.32
2023-09-19T18:17:05.734Z,6.93
2023-09-19T18:19:32.947Z,11.13
2023-09-19T18:22:00.044Z,6.35
2023-09-19T18:24:28.802Z,6.30
2023-09-19T18:26:57.309Z,11.82
2023-09-19T18:29:24.573Z,5.72
2023-09-19T18:31:51.879Z,7.88
2023-09-19T18:34:19.296Z,5.43
2023-09-19T18:36:46.478Z,8.85
2023-09-19T18:39:13.655Z,9.00
2023-09-19T18:41:40.797Z,3.50
2023-09-19T18:44:09.457Z,5.00
2023-09-19T18:46:37.221Z,4.65
2023-09-19T18:49:04.525Z,4.93
2023-09-19T18:51:31.762Z,5.40
2023-09-19T18:54:11.588Z,3.80
2023-09-19T18:56:41.300Z,4.95
2023-09-19T18:59:09.967Z,4.32
2023-09-19T19:01:37.433Z,3.85
2023-09-19T19:04:05.109Z,3.95
2023-09-19T19:06:33.366Z,7.00
2023-09-19T19:09:00.503Z,7.40
2023-09-19T19:11:29.730Z,6.30
2023-09-19T19:13:57.206Z,4.65
2023-09-19T19:16:26.324Z,9.30
2023-09-19T19:18:54.286Z,5.55
2023-09-19T19:21:21.511Z,10.02
2023-09-19T19:23:51.801Z,3.13
2023-09-19T19:26:18.967Z,8.48
2023-09-19T19:28:46.184Z,4.80
2023-09-19T19:31:13.610Z,6.35
2023-09-19T19:33:42.154Z,6.45
2023-09-19T19:36:10.575Z,7.00
2023-09-19T19:38:38.145Z,6.53
2023-09-19T19:41:05.579Z,7.80
2023-09-19T19:43:35.317Z,22.10
2023-09-19T19:46:05.223Z,10.73
2023-09-19T19:48:32.484Z,7.40
2023-09-19T19:51:04.815Z,3.92
2023-09-19T19:53:31.981Z,6.95
2023-09-19T19:56:00.889Z,3.70
2023-09-19T19:58:28.076Z,3.97
2023-09-19T20:00:56.472Z,7.57
2023-09-19T20:03:23.884Z,8.30
2023-09-19T20:05:51.672Z,4.85
2023-09-19T20:08:21.241Z,11.00
2023-09-19T20:10:48.497Z,5.85
2023-09-19T20:13:15.692Z,7.78
2023-09-19T20:15:43.057Z,5.78
2023-09-19T20:18:11.271Z,5.45
2023-09-19T20:20:38.494Z,5.03
2023-09-19T20:23:05.718Z,7.63
2023-09-19T20:25:35.552Z,6.55
2023-09-19T20:28:04.027Z,7.47
2023-09-19T20:30:31.281Z,9.10
2023-09-19T20:32:58.547Z,3.65
2023-09-19T20:35:25.825Z,5.38
2023-09-19T20:37:53.077Z,6.10
2023-09-19T20:40:20.231Z,6.28
2023-09-19T20:42:48.799Z,7.93
2023-09-19T20:45:16.123Z,8.68
2023-09-19T20:47:43.928Z,5.82
2023-09-19T20:50:11.554Z,12.68
2023-09-19T20:52:39.105Z,7.25
2023-09-19T20:55:07.065Z,8.57
2023-09-19T20:57:34.214Z,4.28
2023-09-19T21:00:02.921Z,5.88
2023-09-19T21:02:30.148Z,6.28
2023-09-19T21:04:57.551Z,4.18
2023-09-19T21:07:24.779Z,6.78
2023-09-19T21:09:51.955Z,3.92
2023-09-19T21:12:19.102Z,7.70
2023-09-19T21:14:46.216Z,9.63
2023-09-19T21:17:14.830Z,4.43
2023-09-19T21:19:42.081Z,4.20
2023-09-19T21:22:09.334Z,5.93
2023-09-19T21:24:36.531Z,5.55
2023-09-19T21:27:04.094Z,9.23
2023-09-19T21:29:31.285Z,6.45
2023-09-19T21:31:58.478Z,5.32
2023-09-19T21:34:27.540Z,10.60
2023-09-19T21:36:54.786Z,5.80
2023-09-19T21:39:22.079Z,6.97
2023-09-19T21:41:49.178Z,10.20
2023-09-19T21:44:16.384Z,6.13
2023-09-19T21:46:44.082Z,8.18
2023-09-19T21:49:11.366Z,6.07
2023-09-19T21:51:39.929Z,4.60
2023-09-19T21:54:07.272Z,8.13
2023-09-19T21:56:34.423Z,8.55
2023-09-19T21:59:01.773Z,7.10
2023-09-19T22:01:28.978Z,9.35
2023-09-19T22:03:56.277Z,5.90
2023-09-19T22:06:23.478Z,5.97
2023-09-19T22:08:52.359Z,8.50
2023-09-19T22:11:20.219Z,4.60
2023-09-19T22:13:47.786Z,3.15
2023-09-19T22:16:16.813Z,7.78
2023-09-19T22:18:46.192Z,8.10
2023-09-19T22:21:13.568Z,5.15
2023-09-19T22:23:41.707Z,5.85
2023-09-19T22:26:11.170Z,7.28
2023-09-19T22:28:38.599Z,8.23
2023-09-19T22:31:06.218Z,9.45
2023-09-19T22:33:33.675Z,6.78
2023-09-19T22:36:05.164Z,4.40
2023-09-19T22:38:33.174Z,5.80
2023-09-19T22:41:00.352Z,6.95
2023-09-19T22:43:28.931Z,7.38
2023-09-19T22:45:56.172Z,6.38
2023-09-19T22:48:23.557Z,6.20
2023-09-19T22:50:50.924Z,7.90
2023-09-19T22:53:18.357Z,8.75
2023-09-19T22:55:45.699Z,13.40
2023-09-19T22:58:12.880Z,6.40
2023-09-19T23:00:41.463Z,7.63
2023-09-19T23:03:08.768Z,4.32
2023-09-19T23:05:37.355Z,10.77
2023-09-19T23:08:06.329Z,8.65
2023-09-19T23:10:40.452Z,8.80
2023-09-19T23:13:07.612Z,8.00
2023-09-19T23:15:38.948Z,8.32
2023-09-19T23:18:07.905Z,7.97
2023-09-19T23:20:35.053Z,11.75
2023-09-19T23:23:02.297Z,9.65
2023-09-19T23:25:29.497Z,6.28
2023-09-19T23:27:56.842Z,7.15
2023-09-19T23:30:23.966Z,6.55
2023-09-19T23:32:51.184Z,9.63
2023-09-19T23:35:19.942Z,8.00
2023-09-19T23:37:47.118Z,7.63
2023-09-19T23:40:14.340Z,8.30
2023-09-19T23:42:41.587Z,4.40
2023-09-19T23:45:09.663Z,5.15
2023-09-19T23:47:36.848Z,12.48
2023-09-19T23:50:04.423Z,6.88
2023-09-19T23:52:32.961Z,11.13
2023-09-19T23:55:00.137Z,11.43
2023-09-19T23:57:27.251Z,7.13
2023-09-19T23:59:54.388Z,5.50
